sensor_id;sensor_type;location;lat;lon;timestamp;P1;durP1;ratioP1;P2;durP2;ratioP2
30707;SDS011;17458;48.958;8.284;2023-04-24T00:02:24;1.35;;;1.05;;
30707;SDS011;17458;48.958;8.284;2023-04-24T00:05:09;3.63;;;1.42;;
30707;SDS011;17458;48.958;8.284;2023-04-24T00:07:53;2.35;;;1.40;;
30707;SDS011;17458;48.958;8.284;2023-04-24T00:10:38;1.23;;;1.10;;
30707;SDS011;17458;48.958;8.284;2023-04-24T00:13:22;1.10;;;1.10;;
30707;SDS011;17458;48.958;8.284;2023-04-24T00:16:06;1.45;;;1.35;;
30707;SDS011;17458;48.958;8.284;2023-04-24T00:18:49;1.77;;;1.33;;
30707;SDS011;17458;48.958;8.284;2023-04-24T00:21:36;2.45;;;1.27;;
30707;SDS011;17458;48.958;8.284;2023-04-24T00:24:21;1.27;;;1.05;;
30707;SDS011;17458;48.958;8.284;2023-04-24T00:27:05;1.00;;;1.00;;
30707;SDS011;17458;48.958;8.284;2023-04-24T00:29:49;1.55;;;1.45;;
30707;SDS011;17458;48.958;8.284;2023-04-24T00:32:33;2.83;;;1.38;;
30707;SDS011;17458;48.958;8.284;2023-04-24T00:35:17;2.75;;;1.42;;
30707;SDS011;17458;48.958;8.284;2023-04-24T00:38:03;2.40;;;1.30;;
30707;SDS011;17458;48.958;8.284;2023-04-24T00:40:48;4.25;;;1.40;;
30707;SDS011;17458;48.958;8.284;2023-04-24T00:43:34;3.10;;;1.25;;
30707;SDS011;17458;48.958;8.284;2023-04-24T00:46:18;1.30;;;1.20;;
30707;SDS011;17458;48.958;8.284;2023-04-24T00:49:03;2.10;;;1.40;;
30707;SDS011;17458;48.958;8.284;2023-04-24T00:51:48;2.25;;;1.40;;
30707;SDS011;17458;48.958;8.284;2023-04-24T00:54:35;1.50;;;1.40;;
30707;SDS011;17458;48.958;8.284;2023-04-24T00:57:19;3.83;;;1.50;;
30707;SDS011;17458;48.958;8.284;2023-04-24T01:00:03;1.70;;;1.60;;
30707;SDS011;17458;48.958;8.284;2023-04-24T01:02:49;2.92;;;1.30;;
30707;SDS011;17458;48.958;8.284;2023-04-24T01:05:35;1.75;;;1.33;;
30707;SDS011;17458;48.958;8.284;2023-04-24T01:08:19;2.90;;;1.40;;
30707;SDS011;17458;48.958;8.284;2023-04-24T01:11:06;5.45;;;1.17;;
30707;SDS011;17458;48.958;8.284;2023-04-24T01:13:51;1.75;;;1.20;;
30707;SDS011;17458;48.958;8.284;2023-04-24T01:16:36;1.73;;;1.35;;
30707;SDS011;17458;48.958;8.284;2023-04-24T01:19:21;1.55;;;1.42;;
30707;SDS011;17458;48.958;8.284;2023-04-24T01:22:10;1.45;;;1.35;;
30707;SDS011;17458;48.958;8.284;2023-04-24T01:24:55;4.32;;;1.45;;
30707;SDS011;17458;48.958;8.284;2023-04-24T01:27:40;1.67;;;1.20;;
30707;SDS011;17458;48.958;8.284;2023-04-24T01:30:24;2.55;;;1.50;;
30707;SDS011;17458;48.958;8.284;2023-04-24T01:33:08;1.80;;;1.48;;
30707;SDS011;17458;48.958;8.284;2023-04-24T01:35:52;2.50;;;1.38;;
30707;SDS011;17458;48.958;8.284;2023-04-24T01:38:36;1.75;;;1.30;;
30707;SDS011;17458;48.958;8.284;2023-04-24T01:41:21;3.08;;;1.30;;
30707;SDS011;17458;48.958;8.284;2023-04-24T01:44:05;3.85;;;1.48;;
30707;SDS011;17458;48.958;8.284;2023-04-24T01:46:49;1.92;;;1.30;;
30707;SDS011;17458;48.958;8.284;2023-04-24T01:49:33;1.50;;;1.40;;
30707;SDS011;17458;48.958;8.284;2023-04-24T01:52:18;1.50;;;1.40;;
30707;SDS011;17458;48.958;8.284;2023-04-24T01:55:03;4.70;;;1.45;;
30707;SDS011;17458;48.958;8.284;2023-04-24T01:57:47;4.57;;;1.80;;
30707;SDS011;17458;48.958;8.284;2023-04-24T02:00:32;2.78;;;1.20;;
30707;SDS011;17458;48.958;8.284;2023-04-24T02:03:16;4.65;;;1.67;;
30707;SDS011;17458;48.958;8.284;2023-04-24T02:06:00;2.63;;;1.67;;
30707;SDS011;17458;48.958;8.284;2023-04-24T02:08:44;8.00;;;1.77;;
30707;SDS011;17458;48.958;8.284;2023-04-24T02:11:28;2.70;;;1.45;;
30707;SDS011;17458;48.958;8.284;2023-04-24T02:14:12;2.05;;;1.60;;
30707;SDS011;17458;48.958;8.284;2023-04-24T02:16:57;2.08;;;1.45;;
30707;SDS011;17458;48.958;8.284;2023-04-24T02:19:41;2.15;;;1.33;;
30707;SDS011;17458;48.958;8.284;2023-04-24T02:22:25;2.25;;;1.63;;
30707;SDS011;17458;48.958;8.284;2023-04-24T02:25:09;1.40;;;1.30;;
30707;SDS011;17458;48.958;8.284;2023-04-24T02:27:53;3.80;;;2.35;;
30707;SDS011;17458;48.958;8.284;2023-04-24T02:30:37;4.28;;;1.33;;
30707;SDS011;17458;48.958;8.284;2023-04-24T02:33:21;1.60;;;1.50;;
30707;SDS011;17458;48.958;8.284;2023-04-24T02:36:05;7.82;;;1.55;;
30707;SDS011;17458;48.958;8.284;2023-04-24T02:38:49;3.58;;;1.30;;
30707;SDS011;17458;48.958;8.284;2023-04-24T02:41:33;2.38;;;1.25;;
30707;SDS011;17458;48.958;8.284;2023-04-24T02:44:17;1.73;;;1.35;;
30707;SDS011;17458;48.958;8.284;2023-04-24T02:47:01;5.25;;;1.75;;
30707;SDS011;17458;48.958;8.284;2023-04-24T02:49:45;3.67;;;1.92;;
30707;SDS011;17458;48.958;8.284;2023-04-24T02:52:29;3.22;;;1.60;;
30707;SDS011;17458;48.958;8.284;2023-04-24T02:55:13;2.92;;;1.85;;
30707;SDS011;17458;48.958;8.284;2023-04-24T02:57:57;2.78;;;1.30;;
30707;SDS011;17458;48.958;8.284;2023-04-24T03:00:41;1.52;;;1.40;;
30707;SDS011;17458;48.958;8.284;2023-04-24T03:03:25;2.78;;;1.55;;
30707;SDS011;17458;48.958;8.284;2023-04-24T03:06:10;3.20;;;2.00;;
30707;SDS011;17458;48.958;8.284;2023-04-24T03:08:54;1.40;;;1.30;;
30707;SDS011;17458;48.958;8.284;2023-04-24T03:11:38;5.57;;;1.13;;
30707;SDS011;17458;48.958;8.284;2023-04-24T03:14:25;2.00;;;1.48;;
30707;SDS011;17458;48.958;8.284;2023-04-24T03:17:09;1.90;;;1.67;;
30707;SDS011;17458;48.958;8.284;2023-04-24T03:19:53;11.25;;;1.80;;
30707;SDS011;17458;48.958;8.284;2023-04-24T03:22:37;1.38;;;1.30;;
30707;SDS011;17458;48.958;8.284;2023-04-24T03:25:24;2.90;;;1.55;;
30707;SDS011;17458;48.958;8.284;2023-04-24T03:28:09;5.32;;;1.58;;
30707;SDS011;17458;48.958;8.284;2023-04-24T03:31:08;4.40;;;1.48;;
30707;SDS011;17458;48.958;8.284;2023-04-24T03:33:54;2.35;;;1.58;;
30707;SDS011;17458;48.958;8.284;2023-04-24T03:36:39;4.78;;;1.88;;
30707;SDS011;17458;48.958;8.284;2023-04-24T03:39:25;2.72;;;2.05;;
30707;SDS011;17458;48.958;8.284;2023-04-24T03:42:12;2.35;;;1.98;;
30707;SDS011;17458;48.958;8.284;2023-04-24T03:45:07;3.30;;;1.60;;
30707;SDS011;17458;48.958;8.284;2023-04-24T03:47:54;1.80;;;1.70;;
30707;SDS011;17458;48.958;8.284;2023-04-24T03:50:39;3.40;;;2.00;;
30707;SDS011;17458;48.958;8.284;2023-04-24T03:53:25;1.80;;;1.70;;
30707;SDS011;17458;48.958;8.284;2023-04-24T03:56:09;2.75;;;1.98;;
30707;SDS011;17458;48.958;8.284;2023-04-24T03:58:54;9.20;;;1.70;;
30707;SDS011;17458;48.958;8.284;2023-04-24T04:01:39;2.50;;;2.30;;
30707;SDS011;17458;48.958;8.284;2023-04-24T04:04:31;1.88;;;1.55;;
30707;SDS011;17458;48.958;8.284;2023-04-24T04:07:15;1.75;;;1.65;;
30707;SDS011;17458;48.958;8.284;2023-04-24T04:09:59;3.08;;;1.67;;
30707;SDS011;17458;48.958;8.284;2023-04-24T04:12:43;1.92;;;1.80;;
30707;SDS011;17458;48.958;8.284;2023-04-24T04:15:28;1.80;;;1.70;;
30707;SDS011;17458;48.958;8.284;2023-04-24T04:18:13;2.25;;;2.05;;
30707;SDS011;17458;48.958;8.284;2023-04-24T04:20:57;2.13;;;1.92;;
30707;SDS011;17458;48.958;8.284;2023-04-24T04:23:42;3.53;;;1.73;;
30707;SDS011;17458;48.958;8.284;2023-04-24T04:26:39;4.07;;;1.90;;
30707;SDS011;17458;48.958;8.284;2023-04-24T04:29:27;3.42;;;1.70;;
30707;SDS011;17458;48.958;8.284;2023-04-24T04:32:11;3.72;;;1.60;;
30707;SDS011;17458;48.958;8.284;2023-04-24T04:34:55;1.88;;;1.70;;
30707;SDS011;17458;48.958;8.284;2023-04-24T04:37:41;2.15;;;1.95;;
30707;SDS011;17458;48.958;8.284;2023-04-24T04:40:45;2.22;;;2.03;;
30707;SDS011;17458;48.958;8.284;2023-04-24T04:43:31;2.35;;;1.98;;
30707;SDS011;17458;48.958;8.284;2023-04-24T04:46:17;2.78;;;2.25;;
30707;SDS011;17458;48.958;8.284;2023-04-24T04:49:15;1.95;;;1.85;;
30707;SDS011;17458;48.958;8.284;2023-04-24T04:52:00;2.80;;;2.20;;
30707;SDS011;17458;48.958;8.284;2023-04-24T04:54:45;3.65;;;2.10;;
30707;SDS011;17458;48.958;8.284;2023-04-24T04:57:30;2.45;;;2.10;;
30707;SDS011;17458;48.958;8.284;2023-04-24T05:00:14;3.53;;;2.05;;
30707;SDS011;17458;48.958;8.284;2023-04-24T05:03:05;2.47;;;2.10;;
30707;SDS011;17458;48.958;8.284;2023-04-24T05:05:50;2.40;;;2.20;;
30707;SDS011;17458;48.958;8.284;2023-04-24T05:08:35;1.70;;;1.58;;
30707;SDS011;17458;48.958;8.284;2023-04-24T05:11:21;2.00;;;1.90;;
30707;SDS011;17458;48.958;8.284;2023-04-24T05:14:05;2.28;;;2.05;;
30707;SDS011;17458;48.958;8.284;2023-04-24T05:16:53;2.45;;;1.92;;
30707;SDS011;17458;48.958;8.284;2023-04-24T05:19:38;2.35;;;1.80;;
30707;SDS011;17458;48.958;8.284;2023-04-24T05:22:24;2.35;;;1.85;;
30707;SDS011;17458;48.958;8.284;2023-04-24T05:25:09;3.00;;;1.70;;
30707;SDS011;17458;48.958;8.284;2023-04-24T05:27:58;1.70;;;1.60;;
30707;SDS011;17458;48.958;8.284;2023-04-24T05:30:43;2.40;;;2.20;;
30707;SDS011;17458;48.958;8.284;2023-04-24T05:33:27;2.22;;;2.03;;
30707;SDS011;17458;48.958;8.284;2023-04-24T05:36:11;2.97;;;2.08;;
30707;SDS011;17458;48.958;8.284;2023-04-24T05:39:14;2.95;;;2.00;;
30707;SDS011;17458;48.958;8.284;2023-04-24T05:42:12;1.83;;;1.70;;
30707;SDS011;17458;48.958;8.284;2023-04-24T05:44:55;2.17;;;1.95;;
30707;SDS011;17458;48.958;8.284;2023-04-24T05:47:39;2.95;;;2.03;;
30707;SDS011;17458;48.958;8.284;2023-04-24T05:50:23;4.13;;;2.10;;
30707;SDS011;17458;48.958;8.284;2023-04-24T05:53:07;4.05;;;2.08;;
30707;SDS011;17458;48.958;8.284;2023-04-24T05:55:54;3.47;;;2.30;;
30707;SDS011;17458;48.958;8.284;2023-04-24T05:58:38;3.00;;;2.00;;
30707;SDS011;17458;48.958;8.284;2023-04-24T06:01:23;2.13;;;1.95;;
30707;SDS011;17458;48.958;8.284;2023-04-24T06:04:15;2.00;;;1.80;;
30707;SDS011;17458;48.958;8.284;2023-04-24T06:06:59;2.42;;;2.22;;
30707;SDS011;17458;48.958;8.284;2023-04-24T06:09:43;2.47;;;2.28;;
30707;SDS011;17458;48.958;8.284;2023-04-24T06:12:28;4.35;;;2.13;;
30707;SDS011;17458;48.958;8.284;2023-04-24T06:15:20;5.35;;;2.00;;
30707;SDS011;17458;48.958;8.284;2023-04-24T06:18:10;2.63;;;2.20;;
30707;SDS011;17458;48.958;8.284;2023-04-24T06:20:55;5.80;;;2.60;;
30707;SDS011;17458;48.958;8.284;2023-04-24T06:23:41;2.50;;;2.30;;
30707;SDS011;17458;48.958;8.284;2023-04-24T06:26:26;2.90;;;2.10;;
30707;SDS011;17458;48.958;8.284;2023-04-24T06:29:10;5.20;;;2.65;;
30707;SDS011;17458;48.958;8.284;2023-04-24T06:31:54;3.72;;;2.60;;
30707;SDS011;17458;48.958;8.284;2023-04-24T06:34:38;4.78;;;2.53;;
30707;SDS011;17458;48.958;8.284;2023-04-24T06:37:22;4.13;;;2.42;;
30707;SDS011;17458;48.958;8.284;2023-04-24T06:40:07;2.28;;;2.00;;
30707;SDS011;17458;48.958;8.284;2023-04-24T06:42:52;2.95;;;2.00;;
30707;SDS011;17458;48.958;8.284;2023-04-24T06:45:36;3.05;;;2.42;;
30707;SDS011;17458;48.958;8.284;2023-04-24T06:48:22;2.17;;;1.98;;
30707;SDS011;17458;48.958;8.284;2023-04-24T06:51:07;2.80;;;2.53;;
30707;SDS011;17458;48.958;8.284;2023-04-24T06:53:52;2.70;;;2.45;;
30707;SDS011;17458;48.958;8.284;2023-04-24T06:56:42;3.13;;;2.20;;
30707;SDS011;17458;48.958;8.284;2023-04-24T06:59:26;5.93;;;2.63;;
30707;SDS011;17458;48.958;8.284;2023-04-24T07:02:11;3.58;;;2.40;;
30707;SDS011;17458;48.958;8.284;2023-04-24T07:04:55;3.50;;;2.10;;
30707;SDS011;17458;48.958;8.284;2023-04-24T07:07:40;2.15;;;1.95;;
30707;SDS011;17458;48.958;8.284;2023-04-24T07:10:25;5.72;;;2.00;;
30707;SDS011;17458;48.958;8.284;2023-04-24T07:13:12;3.92;;;2.38;;
30707;SDS011;17458;48.958;8.284;2023-04-24T07:15:56;2.30;;;1.88;;
30707;SDS011;17458;48.958;8.284;2023-04-24T07:18:40;7.72;;;1.80;;
30707;SDS011;17458;48.958;8.284;2023-04-24T07:21:24;3.08;;;2.78;;
30707;SDS011;17458;48.958;8.284;2023-04-24T07:24:09;2.17;;;1.83;;
30707;SDS011;17458;48.958;8.284;2023-04-24T07:26:54;2.85;;;2.10;;
30707;SDS011;17458;48.958;8.284;2023-04-24T07:29:38;2.25;;;1.85;;
30707;SDS011;17458;48.958;8.284;2023-04-24T07:32:23;1.38;;;1.27;;
30707;SDS011;17458;48.958;8.284;2023-04-24T07:35:07;1.45;;;1.35;;
30707;SDS011;17458;48.958;8.284;2023-04-24T07:37:53;6.53;;;1.65;;
30707;SDS011;17458;48.958;8.284;2023-04-24T07:40:38;7.53;;;1.30;;
30707;SDS011;17458;48.958;8.284;2023-04-24T07:43:22;7.72;;;2.78;;
30707;SDS011;17458;48.958;8.284;2023-04-24T07:46:08;2.42;;;1.60;;
30707;SDS011;17458;48.958;8.284;2023-04-24T07:48:52;2.65;;;1.48;;
30707;SDS011;17458;48.958;8.284;2023-04-24T07:51:37;3.67;;;1.88;;
30707;SDS011;17458;48.958;8.284;2023-04-24T07:54:21;4.50;;;1.70;;
30707;SDS011;17458;48.958;8.284;2023-04-24T07:57:05;4.00;;;2.20;;
30707;SDS011;17458;48.958;8.284;2023-04-24T07:59:51;4.15;;;1.95;;
30707;SDS011;17458;48.958;8.284;2023-04-24T08:02:35;2.15;;;1.98;;
30707;SDS011;17458;48.958;8.284;2023-04-24T08:05:19;3.92;;;1.73;;
30707;SDS011;17458;48.958;8.284;2023-04-24T08:08:03;3.40;;;1.98;;
30707;SDS011;17458;48.958;8.284;2023-04-24T08:10:47;2.20;;;2.00;;
30707;SDS011;17458;48.958;8.284;2023-04-24T08:13:31;2.17;;;2.03;;
30707;SDS011;17458;48.958;8.284;2023-04-24T08:16:14;7.32;;;2.13;;
30707;SDS011;17458;48.958;8.284;2023-04-24T08:18:59;2.72;;;1.88;;
30707;SDS011;17458;48.958;8.284;2023-04-24T08:21:43;3.70;;;2.50;;
30707;SDS011;17458;48.958;8.284;2023-04-24T08:24:27;4.88;;;3.58;;
30707;SDS011;17458;48.958;8.284;2023-04-24T08:27:11;6.80;;;3.45;;
30707;SDS011;17458;48.958;8.284;2023-04-24T08:29:56;4.30;;;2.80;;
30707;SDS011;17458;48.958;8.284;2023-04-24T08:32:41;2.97;;;2.67;;
30707;SDS011;17458;48.958;8.284;2023-04-24T08:35:25;5.13;;;2.45;;
30707;SDS011;17458;48.958;8.284;2023-04-24T08:38:09;4.30;;;2.60;;
30707;SDS011;17458;48.958;8.284;2023-04-24T08:40:53;2.90;;;2.22;;
30707;SDS011;17458;48.958;8.284;2023-04-24T08:43:39;6.50;;;2.60;;
30707;SDS011;17458;48.958;8.284;2023-04-24T08:46:24;4.20;;;2.08;;
30707;SDS011;17458;48.958;8.284;2023-04-24T08:49:08;3.25;;;1.98;;
30707;SDS011;17458;48.958;8.284;2023-04-24T08:51:52;2.00;;;1.70;;
30707;SDS011;17458;48.958;8.284;2023-04-24T08:54:36;4.18;;;2.05;;
30707;SDS011;17458;48.958;8.284;2023-04-24T08:57:22;8.55;;;1.63;;
30707;SDS011;17458;48.958;8.284;2023-04-24T09:00:08;2.20;;;2.00;;
30707;SDS011;17458;48.958;8.284;2023-04-24T09:02:53;2.80;;;1.70;;
30707;SDS011;17458;48.958;8.284;2023-04-24T09:05:38;2.25;;;2.03;;
30707;SDS011;17458;48.958;8.284;2023-04-24T09:08:25;2.03;;;1.92;;
30707;SDS011;17458;48.958;8.284;2023-04-24T09:11:09;1.90;;;1.80;;
30707;SDS011;17458;48.958;8.284;2023-04-24T09:13:54;5.60;;;2.13;;
30707;SDS011;17458;48.958;8.284;2023-04-24T09:16:39;4.82;;;2.45;;
30707;SDS011;17458;48.958;8.284;2023-04-24T09:19:24;5.63;;;2.67;;
30707;SDS011;17458;48.958;8.284;2023-04-24T09:22:08;13.60;;;2.70;;
30707;SDS011;17458;48.958;8.284;2023-04-24T09:25:01;3.00;;;2.80;;
30707;SDS011;17458;48.958;8.284;2023-04-24T09:27:47;4.78;;;2.05;;
30707;SDS011;17458;48.958;8.284;2023-04-24T09:30:31;3.80;;;2.35;;
30707;SDS011;17458;48.958;8.284;2023-04-24T09:33:15;4.70;;;2.33;;
30707;SDS011;17458;48.958;8.284;2023-04-24T09:35:59;2.90;;;2.60;;
30707;SDS011;17458;48.958;8.284;2023-04-24T09:38:44;6.13;;;2.67;;
30707;SDS011;17458;48.958;8.284;2023-04-24T09:41:28;5.05;;;2.40;;
30707;SDS011;17458;48.958;8.284;2023-04-24T09:44:15;4.15;;;2.72;;
30707;SDS011;17458;48.958;8.284;2023-04-24T09:47:06;4.18;;;3.00;;
30707;SDS011;17458;48.958;8.284;2023-04-24T09:49:57;4.22;;;2.63;;
30707;SDS011;17458;48.958;8.284;2023-04-24T09:52:46;2.00;;;1.77;;
30707;SDS011;17458;48.958;8.284;2023-04-24T09:55:44;2.17;;;2.08;;
30707;SDS011;17458;48.958;8.284;2023-04-24T09:58:29;2.22;;;1.90;;
30707;SDS011;17458;48.958;8.284;2023-04-24T10:01:14;3.97;;;2.72;;
30707;SDS011;17458;48.958;8.284;2023-04-24T10:03:58;4.20;;;2.13;;
30707;SDS011;17458;48.958;8.284;2023-04-24T10:06:42;1.88;;;1.65;;
30707;SDS011;17458;48.958;8.284;2023-04-24T10:09:26;3.75;;;2.53;;
30707;SDS011;17458;48.958;8.284;2023-04-24T10:12:11;1.75;;;1.50;;
30707;SDS011;17458;48.958;8.284;2023-04-24T10:14:56;3.67;;;2.20;;
30707;SDS011;17458;48.958;8.284;2023-04-24T10:17:42;4.70;;;2.10;;
30707;SDS011;17458;48.958;8.284;2023-04-24T10:20:28;2.55;;;2.05;;
30707;SDS011;17458;48.958;8.284;2023-04-24T10:23:16;1.95;;;1.77;;
30707;SDS011;17458;48.958;8.284;2023-04-24T10:26:02;3.03;;;1.85;;
30707;SDS011;17458;48.958;8.284;2023-04-24T10:28:47;3.70;;;2.38;;
30707;SDS011;17458;48.958;8.284;2023-04-24T10:31:31;4.32;;;2.38;;
30707;SDS011;17458;48.958;8.284;2023-04-24T10:34:17;5.82;;;2.30;;
30707;SDS011;17458;48.958;8.284;2023-04-24T10:37:04;3.55;;;3.08;;
30707;SDS011;17458;48.958;8.284;2023-04-24T10:39:48;3.13;;;2.83;;
30707;SDS011;17458;48.958;8.284;2023-04-24T10:42:35;5.15;;;2.63;;
30707;SDS011;17458;48.958;8.284;2023-04-24T10:45:23;3.70;;;2.28;;
30707;SDS011;17458;48.958;8.284;2023-04-24T10:48:08;3.47;;;1.98;;
30707;SDS011;17458;48.958;8.284;2023-04-24T10:50:57;3.15;;;2.78;;
30707;SDS011;17458;48.958;8.284;2023-04-24T10:53:41;4.75;;;2.55;;
30707;SDS011;17458;48.958;8.284;2023-04-24T10:56:24;2.63;;;2.05;;
30707;SDS011;17458;48.958;8.284;2023-04-24T10:59:09;3.60;;;2.25;;
30707;SDS011;17458;48.958;8.284;2023-04-24T11:01:55;2.85;;;2.55;;
30707;SDS011;17458;48.958;8.284;2023-04-24T11:04:42;4.20;;;2.75;;
30707;SDS011;17458;48.958;8.284;2023-04-24T11:07:27;4.32;;;3.15;;
30707;SDS011;17458;48.958;8.284;2023-04-24T11:10:24;3.17;;;2.85;;
30707;SDS011;17458;48.958;8.284;2023-04-24T11:13:09;3.92;;;2.63;;
30707;SDS011;17458;48.958;8.284;2023-04-24T11:19:24;9.10;;;3.22;;
30707;SDS011;17458;48.958;8.284;2023-04-24T11:22:15;6.10;;;3.70;;
30707;SDS011;17458;48.958;8.284;2023-04-24T11:25:01;4.82;;;3.80;;
30707;SDS011;17458;48.958;8.284;2023-04-24T11:27:50;5.18;;;4.00;;
30707;SDS011;17458;48.958;8.284;2023-04-24T11:30:34;11.15;;;3.40;;
30707;SDS011;17458;48.958;8.284;2023-04-24T11:33:19;9.40;;;3.75;;
30707;SDS011;17458;48.958;8.284;2023-04-24T11:36:05;12.25;;;4.22;;
30707;SDS011;17458;48.958;8.284;2023-04-24T11:38:49;5.40;;;4.05;;
30707;SDS011;17458;48.958;8.284;2023-04-24T11:41:34;6.05;;;4.85;;
30707;SDS011;17458;48.958;8.284;2023-04-24T11:44:19;6.75;;;5.32;;
30707;SDS011;17458;48.958;8.284;2023-04-24T11:47:05;4.95;;;4.35;;
30707;SDS011;17458;48.958;8.284;2023-04-24T11:49:50;4.32;;;3.90;;
30707;SDS011;17458;48.958;8.284;2023-04-24T11:52:41;5.53;;;4.55;;
30707;SDS011;17458;48.958;8.284;2023-04-24T11:55:27;7.35;;;5.10;;
30707;SDS011;17458;48.958;8.284;2023-04-24T11:58:13;3.78;;;3.38;;
30707;SDS011;17458;48.958;8.284;2023-04-24T12:00:57;4.65;;;3.70;;
30707;SDS011;17458;48.958;8.284;2023-04-24T12:03:48;3.20;;;2.50;;
30707;SDS011;17458;48.958;8.284;2023-04-24T12:06:34;4.32;;;3.40;;
30707;SDS011;17458;48.958;8.284;2023-04-24T12:09:18;3.35;;;2.63;;
30707;SDS011;17458;48.958;8.284;2023-04-24T12:12:02;5.10;;;3.35;;
30707;SDS011;17458;48.958;8.284;2023-04-24T12:14:51;3.00;;;2.70;;
30707;SDS011;17458;48.958;8.284;2023-04-24T12:17:40;7.00;;;3.60;;
30707;SDS011;17458;48.958;8.284;2023-04-24T12:20:26;3.85;;;3.28;;
30707;SDS011;17458;48.958;8.284;2023-04-24T12:23:13;4.05;;;3.47;;
30707;SDS011;17458;48.958;8.284;2023-04-24T12:25:59;5.05;;;3.13;;
30707;SDS011;17458;48.958;8.284;2023-04-24T12:28:46;4.45;;;3.47;;
30707;SDS011;17458;48.958;8.284;2023-04-24T12:31:32;3.97;;;2.78;;
30707;SDS011;17458;48.958;8.284;2023-04-24T12:37:11;4.90;;;3.40;;
30707;SDS011;17458;48.958;8.284;2023-04-24T12:42:49;5.32;;;3.42;;
30707;SDS011;17458;48.958;8.284;2023-04-24T12:45:35;3.90;;;3.35;;
30707;SDS011;17458;48.958;8.284;2023-04-24T12:48:19;2.97;;;2.53;;
30707;SDS011;17458;48.958;8.284;2023-04-24T12:51:04;4.97;;;2.70;;
30707;SDS011;17458;48.958;8.284;2023-04-24T12:53:49;3.13;;;2.83;;
30707;SDS011;17458;48.958;8.284;2023-04-24T12:56:33;5.35;;;2.42;;
30707;SDS011;17458;48.958;8.284;2023-04-24T12:59:17;5.13;;;2.80;;
30707;SDS011;17458;48.958;8.284;2023-04-24T13:02:01;3.22;;;2.47;;
30707;SDS011;17458;48.958;8.284;2023-04-24T13:04:46;3.13;;;2.08;;
30707;SDS011;17458;48.958;8.284;2023-04-24T13:07:30;7.72;;;2.45;;
30707;SDS011;17458;48.958;8.284;2023-04-24T13:10:14;4.25;;;2.95;;
30707;SDS011;17458;48.958;8.284;2023-04-24T13:12:59;4.07;;;2.55;;
30707;SDS011;17458;48.958;8.284;2023-04-24T13:15:43;5.63;;;2.67;;
30707;SDS011;17458;48.958;8.284;2023-04-24T13:18:27;4.10;;;3.00;;
30707;SDS011;17458;48.958;8.284;2023-04-24T13:21:11;5.35;;;3.03;;
30707;SDS011;17458;48.958;8.284;2023-04-24T13:23:55;4.30;;;3.03;;
30707;SDS011;17458;48.958;8.284;2023-04-24T13:26:39;4.43;;;2.55;;
30707;SDS011;17458;48.958;8.284;2023-04-24T13:29:23;7.53;;;2.83;;
30707;SDS011;17458;48.958;8.284;2023-04-24T13:32:07;3.92;;;3.30;;
30707;SDS011;17458;48.958;8.284;2023-04-24T13:34:52;20.20;;;3.15;;
30707;SDS011;17458;48.958;8.284;2023-04-24T13:37:36;2.70;;;2.47;;
30707;SDS011;17458;48.958;8.284;2023-04-24T13:40:20;3.22;;;2.25;;
30707;SDS011;17458;48.958;8.284;2023-04-24T13:43:04;3.90;;;2.33;;
30707;SDS011;17458;48.958;8.284;2023-04-24T13:45:48;5.53;;;2.67;;
30707;SDS011;17458;48.958;8.284;2023-04-24T13:48:32;4.07;;;2.30;;
30707;SDS011;17458;48.958;8.284;2023-04-24T13:51:16;5.93;;;2.08;;
30707;SDS011;17458;48.958;8.284;2023-04-24T13:54:00;2.22;;;2.05;;
30707;SDS011;17458;48.958;8.284;2023-04-24T13:56:44;2.35;;;2.15;;
30707;SDS011;17458;48.958;8.284;2023-04-24T13:59:28;4.32;;;2.53;;
30707;SDS011;17458;48.958;8.284;2023-04-24T14:02:12;4.32;;;2.33;;
30707;SDS011;17458;48.958;8.284;2023-04-24T14:04:56;2.65;;;2.10;;
30707;SDS011;17458;48.958;8.284;2023-04-24T14:07:40;5.15;;;2.50;;
30707;SDS011;17458;48.958;8.284;2023-04-24T14:10:25;3.63;;;2.92;;
30707;SDS011;17458;48.958;8.284;2023-04-24T14:13:10;5.53;;;2.10;;
30707;SDS011;17458;48.958;8.284;2023-04-24T14:15:54;3.08;;;2.53;;
30707;SDS011;17458;48.958;8.284;2023-04-24T14:18:38;3.05;;;2.13;;
30707;SDS011;17458;48.958;8.284;2023-04-24T14:21:22;2.40;;;2.20;;
30707;SDS011;17458;48.958;8.284;2023-04-24T14:24:06;4.15;;;2.67;;
30707;SDS011;17458;48.958;8.284;2023-04-24T14:26:51;3.78;;;2.63;;
30707;SDS011;17458;48.958;8.284;2023-04-24T14:29:35;2.95;;;2.47;;
30707;SDS011;17458;48.958;8.284;2023-04-24T14:32:19;6.20;;;2.95;;
30707;SDS011;17458;48.958;8.284;2023-04-24T14:35:03;1.60;;;1.50;;
30707;SDS011;17458;48.958;8.284;2023-04-24T14:37:47;2.35;;;1.73;;
30707;SDS011;17458;48.958;8.284;2023-04-24T14:40:32;5.82;;;2.38;;
30707;SDS011;17458;48.958;8.284;2023-04-24T14:43:17;2.20;;;1.92;;
30707;SDS011;17458;48.958;8.284;2023-04-24T14:46:01;5.55;;;1.98;;
30707;SDS011;17458;48.958;8.284;2023-04-24T14:48:46;2.83;;;2.30;;
30707;SDS011;17458;48.958;8.284;2023-04-24T14:51:30;3.47;;;1.75;;
30707;SDS011;17458;48.958;8.284;2023-04-24T14:54:14;2.45;;;1.95;;
30707;SDS011;17458;48.958;8.284;2023-04-24T14:56:58;1.65;;;1.55;;
30707;SDS011;17458;48.958;8.284;2023-04-24T14:59:42;2.30;;;2.10;;
30707;SDS011;17458;48.958;8.284;2023-04-24T15:02:26;2.10;;;1.90;;
30707;SDS011;17458;48.958;8.284;2023-04-24T15:05:10;2.97;;;2.28;;
30707;SDS011;17458;48.958;8.284;2023-04-24T15:07:54;2.20;;;2.00;;
30707;SDS011;17458;48.958;8.284;2023-04-24T15:10:38;4.95;;;2.33;;
30707;SDS011;17458;48.958;8.284;2023-04-24T15:13:22;2.47;;;1.90;;
30707;SDS011;17458;48.958;8.284;2023-04-24T15:16:06;2.72;;;1.80;;
30707;SDS011;17458;48.958;8.284;2023-04-24T15:18:50;2.03;;;1.83;;
30707;SDS011;17458;48.958;8.284;2023-04-24T15:21:37;2.63;;;1.83;;
30707;SDS011;17458;48.958;8.284;2023-04-24T15:24:23;3.97;;;2.30;;
30707;SDS011;17458;48.958;8.284;2023-04-24T15:27:09;2.42;;;1.70;;
30707;SDS011;17458;48.958;8.284;2023-04-24T15:29:54;2.30;;;1.90;;
30707;SDS011;17458;48.958;8.284;2023-04-24T15:32:38;2.28;;;2.15;;
30707;SDS011;17458;48.958;8.284;2023-04-24T15:35:23;3.58;;;2.28;;
30707;SDS011;17458;48.958;8.284;2023-04-24T15:38:07;6.57;;;2.33;;
30707;SDS011;17458;48.958;8.284;2023-04-24T15:40:51;1.92;;;1.70;;
30707;SDS011;17458;48.958;8.284;2023-04-24T15:43:35;2.20;;;2.00;;
30707;SDS011;17458;48.958;8.284;2023-04-24T15:46:19;2.13;;;2.00;;
30707;SDS011;17458;48.958;8.284;2023-04-24T15:49:03;2.08;;;1.95;;
30707;SDS011;17458;48.958;8.284;2023-04-24T15:51:48;2.33;;;2.13;;
30707;SDS011;17458;48.958;8.284;2023-04-24T15:54:32;1.92;;;1.65;;
30707;SDS011;17458;48.958;8.284;2023-04-24T15:57:16;1.85;;;1.67;;
30707;SDS011;17458;48.958;8.284;2023-04-24T16:00:01;3.47;;;1.90;;
30707;SDS011;17458;48.958;8.284;2023-04-24T16:02:55;1.77;;;1.67;;
30707;SDS011;17458;48.958;8.284;2023-04-24T16:05:39;4.28;;;3.53;;
30707;SDS011;17458;48.958;8.284;2023-04-24T16:08:23;2.38;;;2.17;;
30707;SDS011;17458;48.958;8.284;2023-04-24T16:11:07;2.00;;;1.83;;
30707;SDS011;17458;48.958;8.284;2023-04-24T16:13:51;1.70;;;1.60;;
30707;SDS011;17458;48.958;8.284;2023-04-24T16:16:36;2.47;;;1.90;;
30707;SDS011;17458;48.958;8.284;2023-04-24T16:19:20;2.00;;;1.90;;
30707;SDS011;17458;48.958;8.284;2023-04-24T16:22:04;1.80;;;1.70;;
30707;SDS011;17458;48.958;8.284;2023-04-24T16:24:48;1.70;;;1.60;;
30707;SDS011;17458;48.958;8.284;2023-04-24T16:27:32;6.38;;;1.63;;
30707;SDS011;17458;48.958;8.284;2023-04-24T16:30:17;2.25;;;1.83;;
30707;SDS011;17458;48.958;8.284;2023-04-24T16:33:02;2.70;;;1.50;;
30707;SDS011;17458;48.958;8.284;2023-04-24T16:35:50;3.80;;;1.75;;
30707;SDS011;17458;48.958;8.284;2023-04-24T16:38:34;4.20;;;1.70;;
30707;SDS011;17458;48.958;8.284;2023-04-24T16:41:18;3.85;;;2.28;;
30707;SDS011;17458;48.958;8.284;2023-04-24T16:44:02;2.88;;;1.75;;
30707;SDS011;17458;48.958;8.284;2023-04-24T16:46:46;2.17;;;1.98;;